createdAt,value
2022-11-26T00:00:14.743Z,40.31
2022-11-26T00:02:44.372Z,40.49
2022-11-26T00:05:13.950Z,40.80
2022-11-26T00:07:42.476Z,40.90
2022-11-26T00:10:19.856Z,40.14
2022-11-26T00:12:48.251Z,40.29
2022-11-26T00:15:18.025Z,40.38
2022-11-26T00:17:47.592Z,40.20
2022-11-26T00:20:16.096Z,40.09
2022-11-26T00:22:45.401Z,40.14
2022-11-26T00:25:18.956Z,40.39
2022-11-26T00:27:47.085Z,39.98
2022-11-26T00:30:19.634Z,40.05
2022-11-26T00:32:49.316Z,39.85
2022-11-26T00:35:17.653Z,39.91
2022-11-26T00:37:47.373Z,39.91
2022-11-26T00:40:20.814Z,40.25
2022-11-26T00:42:49.208Z,39.69
2022-11-26T00:45:18.985Z,39.58
2022-11-26T00:47:48.688Z,40.03
2022-11-26T00:50:18.952Z,40.25
2022-11-26T00:52:50.945Z,40.24
2022-11-26T00:55:28.817Z,39.82
2022-11-26T00:57:57.231Z,39.83
2022-11-26T01:00:26.484Z,40.00
2022-11-26T01:02:56.336Z,39.76
2022-11-26T01:05:26.057Z,39.71
2022-11-26T01:07:54.609Z,39.46
2022-11-26T01:10:25.292Z,39.53
2022-11-26T01:12:53.749Z,39.97
2022-11-26T01:15:23.908Z,39.89
2022-11-26T01:17:52.735Z,39.30
2022-11-26T01:20:25.624Z,39.32
2022-11-26T01:22:54.477Z,39.78
2022-11-26T01:25:22.729Z,39.74
2022-11-26T01:27:51.000Z,39.39
2022-11-26T01:30:21.302Z,39.37
2022-11-26T01:32:49.873Z,39.69
2022-11-26T01:35:18.443Z,39.63
2022-11-26T01:37:48.104Z,39.47
2022-11-26T01:40:34.210Z,39.52
2022-11-26T01:43:05.633Z,39.34
2022-11-26T01:45:34.031Z,39.82
2022-11-26T01:48:02.342Z,39.71
2022-11-26T01:51:04.768Z,38.96
2022-11-26T01:53:38.962Z,39.45
2022-11-26T01:56:11.942Z,38.75
2022-11-26T01:58:41.856Z,39.68
2022-11-26T02:01:10.084Z,39.13
2022-11-26T02:03:41.193Z,38.87
2022-11-26T02:06:12.049Z,39.49
2022-11-26T02:08:41.548Z,39.08
2022-11-26T02:11:17.640Z,39.70
2022-11-26T02:13:47.491Z,39.31
2022-11-26T02:16:20.634Z,39.20
2022-11-26T02:18:54.236Z,39.33
2022-11-26T02:21:23.869Z,38.71
2022-11-26T02:24:11.444Z,39.41
2022-11-26T02:27:11.564Z,39.33
2022-11-26T02:29:50.089Z,38.80
2022-11-26T02:32:19.315Z,39.06
2022-11-26T02:34:49.224Z,38.69
2022-11-26T02:37:19.853Z,39.12
2022-11-26T02:39:48.163Z,38.92
2022-11-26T02:42:25.236Z,38.70
2022-11-26T02:44:55.202Z,38.76
2022-11-26T02:47:23.443Z,38.81
2022-11-26T02:49:51.721Z,38.92
2022-11-26T02:52:19.957Z,39.02
2022-11-26T02:54:48.233Z,38.96
2022-11-26T02:57:16.953Z,38.83
2022-11-26T02:59:45.301Z,38.85
2022-11-26T03:02:16.200Z,39.18
2022-11-26T03:04:47.017Z,38.93
2022-11-26T03:07:15.520Z,39.13
2022-11-26T03:09:49.863Z,39.16
2022-11-26T03:12:18.204Z,38.67
2022-11-26T03:14:46.722Z,39.12
2022-11-26T03:17:16.392Z,39.15
2022-11-26T03:19:44.948Z,38.87
2022-11-26T03:22:13.171Z,38.96
2022-11-26T03:24:41.632Z,38.96
2022-11-26T03:27:09.829Z,38.71
2022-11-26T03:29:38.220Z,38.82
2022-11-26T03:32:07.223Z,38.97
2022-11-26T03:34:37.267Z,39.02
2022-11-26T03:37:05.721Z,39.07
2022-11-26T03:39:34.097Z,38.37
2022-11-26T03:42:02.383Z,38.35
2022-11-26T03:44:30.590Z,38.98
2022-11-26T03:46:59.037Z,39.01
2022-11-26T03:49:27.401Z,38.85
2022-11-26T03:51:57.329Z,39.04
2022-11-26T03:54:25.688Z,38.84
2022-11-26T03:56:53.900Z,38.97
2022-11-26T03:59:22.238Z,38.31
2022-11-26T04:01:50.771Z,38.90
2022-11-26T04:04:19.072Z,38.84
2022-11-26T04:06:47.398Z,38.81
2022-11-26T04:09:17.153Z,38.34
2022-11-26T04:11:48.409Z,38.75
2022-11-26T04:14:16.696Z,38.85
2022-11-26T04:16:45.015Z,38.86
2022-11-26T04:19:13.302Z,38.25
2022-11-26T04:21:41.495Z,38.68
2022-11-26T04:24:09.965Z,38.28
2022-11-26T04:26:39.584Z,38.83
2022-11-26T04:29:07.916Z,38.23
2022-11-26T04:31:36.385Z,38.39
2022-11-26T04:34:04.722Z,38.54
2022-11-26T04:36:32.936Z,38.57
2022-11-26T04:39:01.447Z,38.59
2022-11-26T04:41:29.641Z,38.64
2022-11-26T04:43:59.448Z,38.34
2022-11-26T04:46:28.037Z,38.36
2022-11-26T04:48:56.250Z,38.47
2022-11-26T04:51:24.552Z,38.00
2022-11-26T04:53:55.767Z,38.66
2022-11-26T04:56:24.635Z,38.51
2022-11-26T04:58:52.932Z,38.54
2022-11-26T05:01:22.897Z,38.77
2022-11-26T05:03:53.036Z,38.44
2022-11-26T05:06:21.588Z,38.57
2022-11-26T05:08:49.895Z,38.49
2022-11-26T05:11:18.079Z,38.38
2022-11-26T05:13:46.323Z,38.68
2022-11-26T05:16:14.698Z,38.65
2022-11-26T05:18:44.667Z,38.55
2022-11-26T05:21:13.292Z,38.10
2022-11-26T05:23:41.572Z,38.33
2022-11-26T05:26:09.785Z,38.11
2022-11-26T05:28:38.084Z,38.46
2022-11-26T05:31:06.805Z,38.07
2022-11-26T05:33:35.114Z,38.67
2022-11-26T05:36:05.168Z,38.36
2022-11-26T05:38:33.458Z,38.80
2022-11-26T05:41:01.694Z,38.43
2022-11-26T05:43:29.920Z,38.81
2022-11-26T05:45:58.238Z,38.23
2022-11-26T05:48:26.463Z,38.76
2022-11-26T05:50:58.838Z,38.47
2022-11-26T05:53:28.756Z,38.57
2022-11-26T05:55:57.032Z,38.86
2022-11-26T05:58:25.299Z,39.04
2022-11-26T06:00:53.598Z,38.87
2022-11-26T06:03:21.955Z,38.91
2022-11-26T06:05:50.619Z,38.43
2022-11-26T06:08:18.865Z,38.60
2022-11-26T06:10:48.668Z,38.52
2022-11-26T06:13:17.419Z,38.97
2022-11-26T06:15:45.649Z,38.44
2022-11-26T06:18:13.924Z,38.89
2022-11-26T06:20:42.194Z,38.80
2022-11-26T06:23:10.345Z,38.68
2022-11-26T06:25:40.615Z,38.06
2022-11-26T06:28:10.147Z,38.50
2022-11-26T06:30:38.373Z,38.00
2022-11-26T06:33:06.774Z,37.73
2022-11-26T06:35:35.116Z,38.40
2022-11-26T06:38:03.190Z,38.50
2022-11-26T06:40:31.421Z,38.39
2022-11-26T06:42:59.497Z,38.59
2022-11-26T06:45:29.066Z,38.56
2022-11-26T06:47:57.217Z,38.37
2022-11-26T06:50:25.672Z,37.91
2022-11-26T06:52:53.872Z,38.19
2022-11-26T06:55:22.200Z,37.95
2022-11-26T06:57:51.144Z,38.53
2022-11-26T07:00:19.904Z,37.97
2022-11-26T07:02:49.407Z,37.93
2022-11-26T07:05:17.596Z,38.02
2022-11-26T07:07:45.855Z,38.44
2022-11-26T07:10:14.168Z,38.21
2022-11-26T07:12:42.243Z,37.81
2022-11-26T07:15:12.201Z,38.18
2022-11-26T07:17:40.369Z,37.90
2022-11-26T07:20:10.585Z,37.90
2022-11-26T07:22:38.868Z,38.20
2022-11-26T07:25:12.389Z,38.00
2022-11-26T07:27:41.125Z,38.65
2022-11-26T07:30:10.455Z,38.02
2022-11-26T07:32:38.633Z,38.05
2022-11-26T07:35:07.676Z,38.32
2022-11-26T07:37:37.489Z,37.89
2022-11-26T07:40:06.735Z,38.15
2022-11-26T07:42:34.853Z,38.06
2022-11-26T07:45:03.882Z,38.15
2022-11-26T07:47:31.975Z,38.18
2022-11-26T07:50:00.355Z,38.26
2022-11-26T07:52:28.468Z,37.93
2022-11-26T07:54:57.974Z,38.24
2022-11-26T07:57:26.090Z,38.62
2022-11-26T07:59:54.252Z,38.18
2022-11-26T08:02:22.380Z,38.62
2022-11-26T08:04:50.664Z,38.73
2022-11-26T08:07:24.636Z,38.53
2022-11-26T08:09:57.182Z,38.35
2022-11-26T08:12:25.313Z,38.28
2022-11-26T08:14:53.478Z,38.61
2022-11-26T08:17:21.548Z,38.44
2022-11-26T08:19:49.674Z,38.07
2022-11-26T08:22:17.806Z,37.92
2022-11-26T08:24:46.069Z,38.37
2022-11-26T08:27:15.565Z,38.12
2022-11-26T08:29:43.784Z,38.23
2022-11-26T08:32:11.884Z,38.69
2022-11-26T08:34:40.341Z,38.53
2022-11-26T08:37:08.612Z,38.45
2022-11-26T08:39:36.770Z,38.38
2022-11-26T08:42:04.976Z,38.44
2022-11-26T08:44:34.546Z,38.42
2022-11-26T08:47:02.651Z,38.17
2022-11-26T08:49:30.836Z,38.50
2022-11-26T08:51:58.936Z,38.48
2022-11-26T08:54:27.159Z,38.41
2022-11-26T08:56:55.649Z,38.66
2022-11-26T08:59:25.417Z,38.40
2022-11-26T09:01:54.994Z,38.14
2022-11-26T09:04:23.251Z,38.53
2022-11-26T09:06:51.369Z,38.16
2022-11-26T09:09:19.518Z,38.18
2022-11-26T09:11:49.141Z,38.10
2022-11-26T09:14:18.799Z,37.84
2022-11-26T09:16:47.248Z,38.31
2022-11-26T09:19:17.109Z,37.89
2022-11-26T09:21:45.319Z,37.85
2022-11-26T09:24:13.710Z,37.73
2022-11-26T09:26:41.895Z,37.90
2022-11-26T09:29:11.400Z,37.99
2022-11-26T09:31:55.072Z,37.97
2022-11-26T09:34:29.019Z,37.81
2022-11-26T09:36:57.091Z,37.64
2022-11-26T09:39:25.269Z,37.94
2022-11-26T09:41:55.608Z,38.20
2022-11-26T09:44:29.965Z,37.79
2022-11-26T09:47:13.686Z,38.20
2022-11-26T09:49:51.525Z,38.10
2022-11-26T09:52:24.150Z,37.93
2022-11-26T09:55:03.048Z,37.73
2022-11-26T09:57:34.750Z,37.91
2022-11-26T10:00:02.897Z,38.26
2022-11-26T10:02:33.127Z,38.19
2022-11-26T10:05:02.673Z,38.01
2022-11-26T10:07:38.982Z,37.51
2022-11-26T10:10:09.745Z,38.01
2022-11-26T10:13:10.781Z,37.97
2022-11-26T10:15:38.267Z,37.83
2022-11-26T10:18:12.716Z,37.86
2022-11-26T10:20:49.048Z,37.38
2022-11-26T10:23:20.224Z,37.78
2022-11-26T10:25:50.024Z,37.70
2022-11-26T10:28:22.213Z,37.56
2022-11-26T10:30:54.099Z,38.11
2022-11-26T10:33:22.415Z,37.70
2022-11-26T10:35:52.061Z,37.46
2022-11-26T10:38:20.200Z,37.85
2022-11-26T10:40:48.329Z,38.11
2022-11-26T10:43:19.934Z,38.19
2022-11-26T10:45:48.972Z,38.12
2022-11-26T10:48:21.244Z,37.72
2022-11-26T10:51:04.863Z,37.84
2022-11-26T10:53:36.161Z,37.71
2022-11-26T10:56:05.716Z,37.93
2022-11-26T10:58:38.647Z,37.68
2022-11-26T11:01:07.408Z,38.05
2022-11-26T11:04:07.334Z,38.32
2022-11-26T11:06:44.245Z,38.13
2022-11-26T11:09:25.707Z,38.26
2022-11-26T11:12:18.928Z,38.54
2022-11-26T11:14:47.813Z,38.03
2022-11-26T11:17:35.463Z,38.00
2022-11-26T11:20:22.146Z,38.43
2022-11-26T11:22:58.154Z,37.85
2022-11-26T11:25:27.200Z,38.43
2022-11-26T11:27:55.462Z,37.89
2022-11-26T11:30:25.996Z,38.22
2022-11-26T11:32:56.453Z,38.46
2022-11-26T11:35:25.656Z,38.09
2022-11-26T11:37:56.054Z,38.25
2022-11-26T11:40:27.709Z,38.40
2022-11-26T11:42:57.165Z,37.87
2022-11-26T11:45:30.244Z,38.04
2022-11-26T11:47:58.869Z,38.39
2022-11-26T11:50:31.864Z,38.06
2022-11-26T11:53:22.694Z,38.13
2022-11-26T11:56:02.091Z,38.44
2022-11-26T11:58:45.733Z,38.38
2022-11-26T12:01:20.949Z,38.57
2022-11-26T12:04:22.302Z,38.31
2022-11-26T12:06:56.423Z,38.53
2022-11-26T12:09:27.589Z,38.13
2022-11-26T12:11:57.707Z,38.12
2022-11-26T12:14:27.517Z,38.50
2022-11-26T12:16:57.483Z,37.75
2022-11-26T12:19:29.931Z,37.11
2022-11-26T12:21:59.564Z,37.25
2022-11-26T12:24:33.356Z,36.95
2022-11-26T12:27:03.907Z,37.55
2022-11-26T12:29:36.240Z,37.46
2022-11-26T12:32:06.775Z,37.84
2022-11-26T12:34:35.853Z,37.72
2022-11-26T12:37:05.463Z,37.70
2022-11-26T12:39:39.573Z,37.54
2022-11-26T12:42:10.621Z,37.86
2022-11-26T12:44:39.618Z,37.66
2022-11-26T12:47:11.701Z,37.96
2022-11-26T12:49:44.073Z,38.09
2022-11-26T12:52:19.417Z,37.51
2022-11-26T12:54:52.609Z,37.72
2022-11-26T12:57:23.920Z,37.61
2022-11-26T12:59:54.865Z,37.69
2022-11-26T13:02:26.248Z,37.84
2022-11-26T13:04:54.916Z,38.10
2022-11-26T13:07:35.543Z,37.91
2022-11-26T13:10:22.165Z,37.90
2022-11-26T13:12:52.817Z,37.93
2022-11-26T13:15:24.553Z,37.83
2022-11-26T13:17:52.845Z,37.65
2022-11-26T13:20:34.857Z,38.11
2022-11-26T13:23:09.421Z,38.20
2022-11-26T13:25:56.144Z,38.45
2022-11-26T13:28:31.296Z,38.10
2022-11-26T13:31:07.618Z,38.36
2022-11-26T13:34:00.629Z,38.02
2022-11-26T13:37:01.101Z,38.12
2022-11-26T13:40:08.997Z,38.43
2022-11-26T13:42:55.474Z,38.32
2022-11-26T13:45:36.260Z,38.30
2022-11-26T13:48:06.535Z,38.35
2022-11-26T13:50:38.060Z,38.31
2022-11-26T13:53:07.806Z,38.19
2022-11-26T13:55:37.903Z,38.58
2022-11-26T13:58:08.609Z,38.03
2022-11-26T14:00:37.502Z,38.01
2022-11-26T14:03:06.279Z,38.21
2022-11-26T14:06:08.283Z,38.52
2022-11-26T14:08:37.850Z,38.24
2022-11-26T14:11:06.484Z,38.38
2022-11-26T14:13:36.235Z,38.10
2022-11-26T14:16:06.277Z,38.71
2022-11-26T14:19:00.913Z,37.94
2022-11-26T14:21:30.693Z,37.69
2022-11-26T14:24:00.565Z,36.98
2022-11-26T14:26:34.458Z,37.63
2022-11-26T14:29:12.066Z,37.14
2022-11-26T14:31:49.982Z,37.37
2022-11-26T14:34:20.705Z,37.83
2022-11-26T14:36:53.114Z,37.55
2022-11-26T14:39:21.345Z,37.84
2022-11-26T14:41:54.437Z,37.71
2022-11-26T14:44:25.453Z,37.69
2022-11-26T14:46:55.353Z,37.99
2022-11-26T14:49:32.039Z,37.58
2022-11-26T14:52:00.334Z,37.91
2022-11-26T14:54:30.775Z,37.75
2022-11-26T14:56:59.737Z,38.03
2022-11-26T14:59:30.634Z,37.61
2022-11-26T15:01:59.088Z,37.82
2022-11-26T15:04:28.145Z,37.38
2022-11-26T15:06:56.863Z,37.77
2022-11-26T15:09:25.934Z,37.34
2022-11-26T15:12:00.891Z,38.01
2022-11-26T15:14:35.804Z,37.17
2022-11-26T15:17:04.082Z,37.85
2022-11-26T15:19:33.981Z,37.21
2022-11-26T15:22:08.861Z,37.40
2022-11-26T15:24:37.843Z,37.32
2022-11-26T15:27:06.119Z,37.76
2022-11-26T15:29:37.382Z,37.44
2022-11-26T15:32:05.967Z,37.49
2022-11-26T15:34:34.055Z,37.43
2022-11-26T15:37:02.216Z,37.21
2022-11-26T15:39:30.983Z,37.55
2022-11-26T15:42:02.257Z,37.98
2022-11-26T15:44:30.592Z,37.80
2022-11-26T15:47:00.547Z,37.70
2022-11-26T15:49:30.475Z,37.69
2022-11-26T15:51:59.282Z,37.38
2022-11-26T15:54:43.322Z,37.35
2022-11-26T15:57:21.262Z,37.46
2022-11-26T15:59:50.217Z,37.49
2022-11-26T16:02:20.738Z,37.96
2022-11-26T16:04:50.533Z,37.93
2022-11-26T16:07:19.543Z,37.43
2022-11-26T16:09:48.185Z,38.08
2022-11-26T16:12:30.253Z,37.58
2022-11-26T16:15:12.215Z,37.35
2022-11-26T16:17:44.396Z,38.21
2022-11-26T16:20:17.450Z,38.08
2022-11-26T16:22:46.870Z,37.72
2022-11-26T16:25:21.804Z,37.88
2022-11-26T16:28:06.588Z,38.21
2022-11-26T16:30:35.029Z,37.89
2022-11-26T16:33:04.681Z,38.03
2022-11-26T16:35:48.117Z,37.91
2022-11-26T16:38:20.250Z,38.10
2022-11-26T16:40:48.692Z,38.28
2022-11-26T16:43:16.777Z,38.10
2022-11-26T16:45:44.959Z,38.22
2022-11-26T16:48:26.060Z,38.00
2022-11-26T16:50:54.835Z,37.70
2022-11-26T16:53:22.934Z,37.74
2022-11-26T16:55:51.152Z,37.95
2022-11-26T16:58:26.100Z,37.60
2022-11-26T17:00:54.419Z,38.28
2022-11-26T17:03:24.205Z,38.32
2022-11-26T17:05:53.901Z,37.91
2022-11-26T17:08:22.062Z,38.27
2022-11-26T17:10:51.010Z,37.54
2022-11-26T17:13:20.670Z,37.53
2022-11-26T17:15:49.214Z,38.37
2022-11-26T17:18:20.395Z,38.05
2022-11-26T17:20:50.045Z,38.33
2022-11-26T17:23:18.437Z,37.88
2022-11-26T17:25:47.361Z,38.42
2022-11-26T17:28:15.848Z,37.74
2022-11-26T17:30:44.636Z,37.61
2022-11-26T17:33:12.816Z,37.73
2022-11-26T17:35:40.913Z,37.86
2022-11-26T17:38:14.880Z,37.67
2022-11-26T17:40:43.359Z,38.19
2022-11-26T17:43:11.492Z,37.95
2022-11-26T17:45:39.888Z,37.77
2022-11-26T17:48:08.017Z,37.73
2022-11-26T17:50:37.404Z,37.38
2022-11-26T17:53:05.593Z,37.33
2022-11-26T17:55:35.085Z,37.47
2022-11-26T17:58:03.193Z,37.34
2022-11-26T18:00:31.413Z,37.80
2022-11-26T18:02:59.652Z,38.01
2022-11-26T18:05:28.333Z,36.89
2022-11-26T18:07:56.650Z,37.03
2022-11-26T18:10:24.900Z,37.33
2022-11-26T18:12:55.231Z,37.82
2022-11-26T18:15:24.244Z,37.37
2022-11-26T18:17:53.404Z,38.11
2022-11-26T18:20:23.982Z,38.27
2022-11-26T18:22:52.318Z,37.88
2022-11-26T18:25:20.460Z,38.43
2022-11-26T18:27:48.681Z,38.13
2022-11-26T18:30:18.686Z,38.25
2022-11-26T18:32:46.898Z,38.25
2022-11-26T18:35:15.086Z,38.79
2022-11-26T18:37:43.293Z,38.34
2022-11-26T18:40:13.636Z,38.35
2022-11-26T18:42:41.944Z,38.63
2022-11-26T18:45:11.500Z,38.64
2022-11-26T18:47:41.057Z,38.87
2022-11-26T18:50:09.992Z,38.83
2022-11-26T18:52:38.217Z,38.37
2022-11-26T18:55:08.311Z,38.69
2022-11-26T18:57:36.630Z,38.62
2022-11-26T19:00:06.078Z,38.54
2022-11-26T19:02:35.288Z,38.55
2022-11-26T19:05:05.974Z,38.43
2022-11-26T19:07:34.247Z,38.30
2022-11-26T19:10:02.370Z,38.14
2022-11-26T19:12:30.596Z,38.22
2022-11-26T19:14:58.875Z,38.04
2022-11-26T19:17:27.194Z,37.79
2022-11-26T19:19:55.294Z,38.41
2022-11-26T19:22:24.823Z,37.84
2022-11-26T19:24:52.961Z,37.92
2022-11-26T19:27:21.126Z,37.82
2022-11-26T19:29:49.341Z,38.18
2022-11-26T19:32:17.552Z,38.49
2022-11-26T19:34:45.702Z,38.52
2022-11-26T19:37:13.804Z,38.20
2022-11-26T19:39:43.544Z,38.12
2022-11-26T19:42:11.646Z,38.12
2022-11-26T19:44:40.052Z,38.31
2022-11-26T19:47:08.133Z,38.33
2022-11-26T19:49:36.740Z,38.37
2022-11-26T19:52:05.129Z,38.48
2022-11-26T19:54:33.433Z,38.38
2022-11-26T19:57:02.937Z,38.38
2022-11-26T19:59:31.146Z,37.83
2022-11-26T20:01:59.410Z,37.89
2022-11-26T20:04:29.720Z,38.10
2022-11-26T20:06:58.674Z,38.48
2022-11-26T20:09:26.769Z,38.18
2022-11-26T20:11:54.916Z,38.57
2022-11-26T20:14:24.387Z,38.28
2022-11-26T20:16:55.150Z,38.00
2022-11-26T20:19:27.499Z,38.43
2022-11-26T20:21:55.629Z,38.56
2022-11-26T20:24:23.725Z,38.26
2022-11-26T20:26:51.908Z,38.29
2022-11-26T20:29:20.130Z,38.52
2022-11-26T20:31:50.867Z,38.47
2022-11-26T20:34:19.814Z,38.24
2022-11-26T20:36:48.040Z,39.08
2022-11-26T20:39:17.461Z,38.70
2022-11-26T20:41:45.674Z,39.01
2022-11-26T20:44:14.241Z,39.06
2022-11-26T20:46:42.450Z,39.62
2022-11-26T20:49:12.306Z,39.21
2022-11-26T20:51:40.551Z,39.65
2022-11-26T20:54:08.666Z,39.49
2022-11-26T20:56:36.863Z,39.55
2022-11-26T20:59:04.980Z,39.28
2022-11-26T21:01:33.413Z,39.77
2022-11-26T21:04:01.540Z,39.73
2022-11-26T21:06:31.604Z,39.30
2022-11-26T21:09:00.729Z,39.49
2022-11-26T21:11:28.919Z,39.66
2022-11-26T21:13:58.092Z,39.90
2022-11-26T21:16:26.302Z,39.96
2022-11-26T21:18:55.023Z,39.63
2022-11-26T21:21:23.237Z,39.14
2022-11-26T21:23:52.793Z,39.21
2022-11-26T21:26:22.336Z,39.38
2022-11-26T21:28:51.642Z,39.18
2022-11-26T21:31:19.928Z,39.51
2022-11-26T21:33:48.247Z,39.22
2022-11-26T21:36:17.148Z,39.52
2022-11-26T21:38:48.381Z,39.58
2022-11-26T21:41:19.903Z,39.39
2022-11-26T21:43:48.401Z,39.84
2022-11-26T21:46:17.225Z,39.62
2022-11-26T21:48:45.551Z,39.07
2022-11-26T21:51:15.441Z,39.01
2022-11-26T21:53:43.676Z,39.57
2022-11-26T21:56:13.773Z,39.74
2022-11-26T21:58:43.397Z,39.49
2022-11-26T22:01:12.497Z,39.39
2022-11-26T22:03:40.955Z,39.12
2022-11-26T22:06:09.277Z,39.20
2022-11-26T22:08:37.460Z,38.85
2022-11-26T22:11:09.803Z,39.01
2022-11-26T22:13:37.974Z,39.21
2022-11-26T22:16:08.338Z,39.31
2022-11-26T22:18:37.301Z,39.47
2022-11-26T22:21:05.609Z,38.82
2022-11-26T22:23:33.801Z,38.62
2022-11-26T22:26:01.909Z,38.83
2022-11-26T22:28:30.430Z,38.80
2022-11-26T22:30:58.709Z,39.15
2022-11-26T22:33:28.353Z,38.75
2022-11-26T22:35:56.430Z,39.06
2022-11-26T22:38:25.214Z,39.18
2022-11-26T22:40:53.320Z,38.96
2022-11-26T22:43:21.546Z,38.95
2022-11-26T22:45:49.731Z,39.08
2022-11-26T22:48:17.916Z,38.66
2022-11-26T22:50:52.401Z,38.64
2022-11-26T22:53:20.630Z,38.58
2022-11-26T22:55:52.378Z,38.26
2022-11-26T22:58:20.637Z,38.40
2022-11-26T23:00:49.932Z,38.39
2022-11-26T23:03:18.219Z,38.64
2022-11-26T23:05:46.563Z,38.07
2022-11-26T23:08:16.100Z,38.73
2022-11-26T23:10:44.364Z,38.63
2022-11-26T23:13:13.401Z,38.58
2022-11-26T23:15:44.656Z,37.81
2022-11-26T23:18:13.693Z,38.38
2022-11-26T23:20:41.820Z,37.96
2022-11-26T23:23:09.928Z,38.56
2022-11-26T23:25:40.600Z,38.65
2022-11-26T23:28:08.744Z,38.60
2022-11-26T23:30:36.821Z,38.47
2022-11-26T23:33:05.059Z,38.32
2022-11-26T23:35:33.200Z,38.22
2022-11-26T23:38:01.332Z,38.46
2022-11-26T23:40:29.504Z,38.39
2022-11-26T23:42:58.982Z,38.60
2022-11-26T23:45:27.146Z,38.47
2022-11-26T23:47:55.289Z,38.25
2022-11-26T23:50:23.473Z,38.19
2022-11-26T23:52:51.555Z,38.24
2022-11-26T23:55:19.731Z,38.69
2022-11-26T23:57:47.797Z,38.44
